Emily, MN (56447)

10:27 PM CDT on September 02, 2014 (GMT -0500)
Emily | Change Station
CLOSE
Current Station
Personal Weather Station
Location: Emily, MN
Elevation: 1302 ft
Nearby Weather Stations

Elev 1302 ft 46.74 °N, 93.95 °W | Updated 4 seconds ago

Mostly Cloudy
Mostly Cloudy
64.4 °F
Feels Like 64.4 °F
N
0.0
Wind Variable Wind from SSE
Gusts 2.0 mph

Today
High -- | Low -- °F
--% Chance of Precip.
Yesterday
High -- | Low -- °F
Precip. -- in
6:36 AM 7:52 PM
First Quarter, 58% visible
Pressure 29.79 in
Visibility 10.0 miles
Clouds Clear
Dew Point 58 °F
Humidity 81%
Rainfall 0.00 in
Snow Depth Not available.
UV 0 out of 12
Pollen 8.80 out of 12
Air Quality Not available.
Flu Activity Not available.
METAR KAIT 030313Z AUTO 20007KT 10SM CLR 19/14 A2979 RMK AO2

More Conditions Fewer Conditions

Pressure 29.79 in
Visibility 10.0 miles
Clouds Clear
Dew Point 58 °F
Humidity 81%
Rainfall 0.00 in
Snow Depth Not available.
UV 0 out of 12
Pollen 8.80 out of 12
Air Quality Not available.
Flu Activity Not available.
METAR KAIT 030313Z AUTO 20007KT 10SM CLR 19/14 A2979 RMK AO2

More Conditions Fewer Conditions

10-Day Weather Forecast

Almanac

Astronomy

Sep. 02, 2014 Rise Set
Actual Time 6:36 AM CDT 7:52 PM CDT
Civil Twilight 6:05 AM CDT 8:24 PM CDT
Nautical Twilight 5:27 AM CDT 9:01 PM CDT
Astronomical Twilight 4:47 AM CDT 9:41 PM CDT
Moon 2:48 PM CDT (9/2) No Moon Set
Length of Visible Light 14h 18m
Length of Day
13h 16m
Tomorrow will be 3m 14s shorter.
First Quarter, 58% of the Moon is Illuminated
Today
First Quarter
Sep 8
Full
Sep 15
Last Quarter
Sep 24
New
Oct 1
First Quarter

Today's Extremes

State Highs State Lows

Community

WunderPhotos

Upload Photos

1,749,865 photos uploaded!

Nearby

Snow Depth

Station Depth Elevation
No new snow has been reported.

Earthquake Activity

City Distance Mag. Time & Date
No recent earthquake activity has been reported nearby.
Minimum magnitude displayed is 2.5.

Coastal Water Temperatures

Place Temperature
No Stations Reporting

Nearby Weather Stations